<?xml version="1.0" encoding="UTF-8" standalone="no" ?>
<gpx xmlns="http://www.topografix.com/GPX/1/1" xmlns:xsi="http://www.w3.org/2001/XMLSchema-instance" xsi:schemaLocation="http://www.topografix.com/GPX/1/1 http://www.topografix.com/GPX/1/1/gpx.xsd" version="1.1" creator="VisuGPX - https://www.visugpx.com">
  <metadata>
    <name>La boucle du Hohneck par Schlessroth et Le Gaschney</name>
    <desc><![CDATA[La boucle du Hohneck]]></desc>
  </metadata>
  <wpt lat="48.03578" lon="7.008">
    <ele>1247</ele>
    <name><![CDATA[Café resto au pied du Hohneck RD 430]]></name>
  </wpt>
  <wpt lat="48.0348" lon="7.01051">
    <ele>1272</ele>
    <name><![CDATA[Premier croissement de chemin]]></name>
  </wpt>
  <wpt lat="48.02936" lon="7.03294">
    <ele>1130</ele>
    <name><![CDATA[Auberge de Schiessroth]]></name>
  </wpt>
  <wpt lat="48.03734" lon="7.0401">
    <ele>1097</ele>
    <name><![CDATA[Croisement 5]]></name>
  </wpt>
  <wpt lat="48.03633" lon="7.02635">
    <ele>1220</ele>
    <name><![CDATA[Carrefour de sentiers]]></name>
  </wpt>
  <wpt lat="48.03583" lon="7.00799">
    <ele>1246</ele>
    <name><![CDATA[Arrivée]]></name>
  </wpt>
  <trk>
    <name><![CDATA[La boucle du Hohneck par Schlessroth et Le Gaschney]]></name>
    <trkseg>
      <trkpt lat="48.03578" lon="7.008">
        <ele>1247</ele>
        <time>2018-08-11T22:00:26+02:00</time>
      </trkpt>
      <trkpt lat="48.03599" lon="7.00845">
        <ele>1250</ele>
        <time>2018-08-11T22:00:31+02:00</time>
      </trkpt>
      <trkpt lat="48.03515" lon="7.00982">
        <ele>1269</ele>
        <time>2018-08-11T22:00:36+02:00</time>
      </trkpt>
      <trkpt lat="48.0348" lon="7.01051">
        <ele>1272</ele>
        <time>2018-08-11T22:00:41+02:00</time>
      </trkpt>
      <trkpt lat="48.03468" lon="7.01082">
        <ele>1271</ele>
        <time>2018-08-11T22:00:46+02:00</time>
      </trkpt>
      <trkpt lat="48.03441" lon="7.01071">
        <ele>1271</ele>
        <time>2018-08-11T22:00:51+02:00</time>
      </trkpt>
      <trkpt lat="48.03459" lon="7.0113">
        <ele>1262</ele>
        <time>2018-08-11T22:00:56+02:00</time>
      </trkpt>
      <trkpt lat="48.03442" lon="7.01241">
        <ele>1227</ele>
        <time>2018-08-11T22:01:01+02:00</time>
      </trkpt>
      <trkpt lat="48.03415" lon="7.01299">
        <ele>1196</ele>
        <time>2018-08-11T22:01:06+02:00</time>
      </trkpt>
      <trkpt lat="48.03423" lon="7.01372">
        <ele>1173</ele>
        <time>2018-08-11T22:01:11+02:00</time>
      </trkpt>
      <trkpt lat="48.03386" lon="7.01379">
        <ele>1177</ele>
        <time>2018-08-11T22:01:16+02:00</time>
      </trkpt>
      <trkpt lat="48.03377" lon="7.01466">
        <ele>1156</ele>
        <time>2018-08-11T22:01:21+02:00</time>
      </trkpt>
      <trkpt lat="48.03387" lon="7.01547">
        <ele>1139</ele>
        <time>2018-08-11T22:01:26+02:00</time>
      </trkpt>
      <trkpt lat="48.03376" lon="7.01585">
        <ele>1133</ele>
        <time>2018-08-11T22:01:31+02:00</time>
      </trkpt>
      <trkpt lat="48.03396" lon="7.01593">
        <ele>1132</ele>
        <time>2018-08-11T22:01:36+02:00</time>
      </trkpt>
      <trkpt lat="48.03375" lon="7.01647">
        <ele>1123</ele>
        <time>2018-08-11T22:01:41+02:00</time>
      </trkpt>
      <trkpt lat="48.03336" lon="7.0167">
        <ele>1107</ele>
        <time>2018-08-11T22:01:46+02:00</time>
      </trkpt>
      <trkpt lat="48.0327" lon="7.01765">
        <ele>1081</ele>
        <time>2018-08-11T22:01:51+02:00</time>
      </trkpt>
      <trkpt lat="48.0321" lon="7.01911">
        <ele>1051</ele>
        <time>2018-08-11T22:01:56+02:00</time>
      </trkpt>
      <trkpt lat="48.03149" lon="7.02057">
        <ele>1033</ele>
        <time>2018-08-11T22:02:01+02:00</time>
      </trkpt>
      <trkpt lat="48.03147" lon="7.02073">
        <ele>1029</ele>
        <time>2018-08-11T22:02:06+02:00</time>
      </trkpt>
      <trkpt lat="48.03173" lon="7.02084">
        <ele>1022</ele>
        <time>2018-08-11T22:02:11+02:00</time>
      </trkpt>
      <trkpt lat="48.03064" lon="7.02182">
        <ele>1003</ele>
        <time>2018-08-11T22:02:16+02:00</time>
      </trkpt>
      <trkpt lat="48.0294" lon="7.02245">
        <ele>985</ele>
        <time>2018-08-11T22:02:21+02:00</time>
      </trkpt>
      <trkpt lat="48.02839" lon="7.02288">
        <ele>979</ele>
        <time>2018-08-11T22:02:26+02:00</time>
      </trkpt>
      <trkpt lat="48.02771" lon="7.02357">
        <ele>977</ele>
        <time>2018-08-11T22:02:31+02:00</time>
      </trkpt>
      <trkpt lat="48.02786" lon="7.02419">
        <ele>956</ele>
        <time>2018-08-11T22:02:36+02:00</time>
      </trkpt>
      <trkpt lat="48.02827" lon="7.02442">
        <ele>946</ele>
        <time>2018-08-11T22:02:41+02:00</time>
      </trkpt>
      <trkpt lat="48.02856" lon="7.02469">
        <ele>942</ele>
        <time>2018-08-11T22:02:46+02:00</time>
      </trkpt>
      <trkpt lat="48.02854" lon="7.02546">
        <ele>935</ele>
        <time>2018-08-11T22:02:51+02:00</time>
      </trkpt>
      <trkpt lat="48.02908" lon="7.02683">
        <ele>931</ele>
        <time>2018-08-11T22:02:56+02:00</time>
      </trkpt>
      <trkpt lat="48.02934" lon="7.02699">
        <ele>939</ele>
        <time>2018-08-11T22:03:01+02:00</time>
      </trkpt>
      <trkpt lat="48.02914" lon="7.02743">
        <ele>942</ele>
        <time>2018-08-11T22:03:06+02:00</time>
      </trkpt>
      <trkpt lat="48.02939" lon="7.02762">
        <ele>955</ele>
        <time>2018-08-11T22:03:11+02:00</time>
      </trkpt>
      <trkpt lat="48.0298" lon="7.0273">
        <ele>958</ele>
        <time>2018-08-11T22:03:16+02:00</time>
      </trkpt>
      <trkpt lat="48.0304" lon="7.02739">
        <ele>980</ele>
        <time>2018-08-11T22:03:21+02:00</time>
      </trkpt>
      <trkpt lat="48.0294" lon="7.02885">
        <ele>998</ele>
        <time>2018-08-11T22:03:26+02:00</time>
      </trkpt>
      <trkpt lat="48.03075" lon="7.02893">
        <ele>1047</ele>
        <time>2018-08-11T22:03:31+02:00</time>
      </trkpt>
      <trkpt lat="48.03015" lon="7.02932">
        <ele>1039</ele>
        <time>2018-08-11T22:03:36+02:00</time>
      </trkpt>
      <trkpt lat="48.03066" lon="7.02941">
        <ele>1060</ele>
        <time>2018-08-11T22:03:41+02:00</time>
      </trkpt>
      <trkpt lat="48.0302" lon="7.02992">
        <ele>1064</ele>
        <time>2018-08-11T22:03:46+02:00</time>
      </trkpt>
      <trkpt lat="48.03058" lon="7.03001">
        <ele>1078</ele>
        <time>2018-08-11T22:03:51+02:00</time>
      </trkpt>
      <trkpt lat="48.03032" lon="7.03031">
        <ele>1081</ele>
        <time>2018-08-11T22:03:56+02:00</time>
      </trkpt>
      <trkpt lat="48.03052" lon="7.03035">
        <ele>1088</ele>
        <time>2018-08-11T22:04:01+02:00</time>
      </trkpt>
      <trkpt lat="48.03038" lon="7.03065">
        <ele>1094</ele>
        <time>2018-08-11T22:04:06+02:00</time>
      </trkpt>
      <trkpt lat="48.03069" lon="7.03074">
        <ele>1104</ele>
        <time>2018-08-11T22:04:11+02:00</time>
      </trkpt>
      <trkpt lat="48.03048" lon="7.0311">
        <ele>1111</ele>
        <time>2018-08-11T22:04:16+02:00</time>
      </trkpt>
      <trkpt lat="48.03073" lon="7.03112">
        <ele>1116</ele>
        <time>2018-08-11T22:04:21+02:00</time>
      </trkpt>
      <trkpt lat="48.03059" lon="7.03142">
        <ele>1123</ele>
        <time>2018-08-11T22:04:26+02:00</time>
      </trkpt>
      <trkpt lat="48.03062" lon="7.03159">
        <ele>1129</ele>
        <time>2018-08-11T22:04:31+02:00</time>
      </trkpt>
      <trkpt lat="48.02966" lon="7.03247">
        <ele>1131</ele>
        <time>2018-08-11T22:04:36+02:00</time>
      </trkpt>
      <trkpt lat="48.02936" lon="7.03294">
        <ele>1130</ele>
        <time>2018-08-11T22:04:41+02:00</time>
      </trkpt>
      <trkpt lat="48.02933" lon="7.03393">
        <ele>1134</ele>
        <time>2018-08-11T22:04:46+02:00</time>
      </trkpt>
      <trkpt lat="48.02951" lon="7.03514">
        <ele>1120</ele>
        <time>2018-08-11T22:04:51+02:00</time>
      </trkpt>
      <trkpt lat="48.0301" lon="7.03639">
        <ele>1105</ele>
        <time>2018-08-11T22:04:56+02:00</time>
      </trkpt>
      <trkpt lat="48.0304" lon="7.03708">
        <ele>1099</ele>
        <time>2018-08-11T22:05:01+02:00</time>
      </trkpt>
      <trkpt lat="48.03081" lon="7.0377">
        <ele>1094</ele>
        <time>2018-08-11T22:05:06+02:00</time>
      </trkpt>
      <trkpt lat="48.03116" lon="7.03834">
        <ele>1092</ele>
        <time>2018-08-11T22:05:11+02:00</time>
      </trkpt>
      <trkpt lat="48.03134" lon="7.03909">
        <ele>1085</ele>
        <time>2018-08-11T22:05:16+02:00</time>
      </trkpt>
      <trkpt lat="48.03148" lon="7.03989">
        <ele>1075</ele>
        <time>2018-08-11T22:05:21+02:00</time>
      </trkpt>
      <trkpt lat="48.03172" lon="7.04052">
        <ele>1066</ele>
        <time>2018-08-11T22:05:26+02:00</time>
      </trkpt>
      <trkpt lat="48.03232" lon="7.04141">
        <ele>1062</ele>
        <time>2018-08-11T22:05:31+02:00</time>
      </trkpt>
      <trkpt lat="48.03277" lon="7.04249">
        <ele>1041</ele>
        <time>2018-08-11T22:05:36+02:00</time>
      </trkpt>
      <trkpt lat="48.03344" lon="7.04415">
        <ele>1010</ele>
        <time>2018-08-11T22:05:41+02:00</time>
      </trkpt>
      <trkpt lat="48.03421" lon="7.04508">
        <ele>1000</ele>
        <time>2018-08-11T22:05:46+02:00</time>
      </trkpt>
      <trkpt lat="48.03451" lon="7.04365">
        <ele>1024</ele>
        <time>2018-08-11T22:05:51+02:00</time>
      </trkpt>
      <trkpt lat="48.03477" lon="7.04302">
        <ele>1038</ele>
        <time>2018-08-11T22:05:56+02:00</time>
      </trkpt>
      <trkpt lat="48.0358" lon="7.04155">
        <ele>1070</ele>
        <time>2018-08-11T22:06:01+02:00</time>
      </trkpt>
      <trkpt lat="48.03651" lon="7.04069">
        <ele>1083</ele>
        <time>2018-08-11T22:06:06+02:00</time>
      </trkpt>
      <trkpt lat="48.03734" lon="7.0401">
        <ele>1097</ele>
        <time>2018-08-11T22:06:11+02:00</time>
      </trkpt>
      <trkpt lat="48.03745" lon="7.03988">
        <ele>1104</ele>
        <time>2018-08-11T22:06:16+02:00</time>
      </trkpt>
      <trkpt lat="48.03786" lon="7.04003">
        <ele>1100</ele>
        <time>2018-08-11T22:06:21+02:00</time>
      </trkpt>
      <trkpt lat="48.03816" lon="7.03977">
        <ele>1106</ele>
        <time>2018-08-11T22:06:26+02:00</time>
      </trkpt>
      <trkpt lat="48.03832" lon="7.03874">
        <ele>1125</ele>
        <time>2018-08-11T22:06:31+02:00</time>
      </trkpt>
      <trkpt lat="48.03858" lon="7.03756">
        <ele>1141</ele>
        <time>2018-08-11T22:06:36+02:00</time>
      </trkpt>
      <trkpt lat="48.0395" lon="7.03633">
        <ele>1148</ele>
        <time>2018-08-11T22:06:41+02:00</time>
      </trkpt>
      <trkpt lat="48.03862" lon="7.03517">
        <ele>1185</ele>
        <time>2018-08-11T22:06:46+02:00</time>
      </trkpt>
      <trkpt lat="48.03842" lon="7.0345">
        <ele>1188</ele>
        <time>2018-08-11T22:06:51+02:00</time>
      </trkpt>
      <trkpt lat="48.03792" lon="7.03437">
        <ele>1210</ele>
        <time>2018-08-11T22:06:56+02:00</time>
      </trkpt>
      <trkpt lat="48.03763" lon="7.03397">
        <ele>1219</ele>
        <time>2018-08-11T22:07:01+02:00</time>
      </trkpt>
      <trkpt lat="48.03728" lon="7.03379">
        <ele>1231</ele>
        <time>2018-08-11T22:07:06+02:00</time>
      </trkpt>
      <trkpt lat="48.03705" lon="7.0334">
        <ele>1238</ele>
        <time>2018-08-11T22:07:11+02:00</time>
      </trkpt>
      <trkpt lat="48.03687" lon="7.03173">
        <ele>1222</ele>
        <time>2018-08-11T22:07:16+02:00</time>
      </trkpt>
      <trkpt lat="48.03676" lon="7.03067">
        <ele>1224</ele>
        <time>2018-08-11T22:07:21+02:00</time>
      </trkpt>
      <trkpt lat="48.03675" lon="7.02935">
        <ele>1223</ele>
        <time>2018-08-11T22:07:26+02:00</time>
      </trkpt>
      <trkpt lat="48.0366" lon="7.02795">
        <ele>1225</ele>
        <time>2018-08-11T22:07:31+02:00</time>
      </trkpt>
      <trkpt lat="48.03636" lon="7.02685">
        <ele>1221</ele>
        <time>2018-08-11T22:07:36+02:00</time>
      </trkpt>
      <trkpt lat="48.03633" lon="7.02635">
        <ele>1220</ele>
        <time>2018-08-11T22:07:41+02:00</time>
      </trkpt>
      <trkpt lat="48.03639" lon="7.02575">
        <ele>1222</ele>
        <time>2018-08-11T22:07:46+02:00</time>
      </trkpt>
      <trkpt lat="48.0366" lon="7.02532">
        <ele>1232</ele>
        <time>2018-08-11T22:07:51+02:00</time>
      </trkpt>
      <trkpt lat="48.0368" lon="7.025">
        <ele>1237</ele>
        <time>2018-08-11T22:07:56+02:00</time>
      </trkpt>
      <trkpt lat="48.03606" lon="7.02431">
        <ele>1243</ele>
        <time>2018-08-11T22:08:01+02:00</time>
      </trkpt>
      <trkpt lat="48.03604" lon="7.02343">
        <ele>1247</ele>
        <time>2018-08-11T22:08:06+02:00</time>
      </trkpt>
      <trkpt lat="48.03648" lon="7.02247">
        <ele>1272</ele>
        <time>2018-08-11T22:08:11+02:00</time>
      </trkpt>
      <trkpt lat="48.03665" lon="7.02102">
        <ele>1289</ele>
        <time>2018-08-11T22:08:16+02:00</time>
      </trkpt>
      <trkpt lat="48.0366" lon="7.01972">
        <ele>1298</ele>
        <time>2018-08-11T22:08:21+02:00</time>
      </trkpt>
      <trkpt lat="48.03606" lon="7.01877">
        <ele>1293</ele>
        <time>2018-08-11T22:08:26+02:00</time>
      </trkpt>
      <trkpt lat="48.03708" lon="7.0172">
        <ele>1331</ele>
        <time>2018-08-11T22:08:31+02:00</time>
      </trkpt>
      <trkpt lat="48.03772" lon="7.01597">
        <ele>1349</ele>
        <time>2018-08-11T22:08:36+02:00</time>
      </trkpt>
      <trkpt lat="48.0374" lon="7.01586">
        <ele>1343</ele>
        <time>2018-08-11T22:08:41+02:00</time>
      </trkpt>
      <trkpt lat="48.0373" lon="7.01539">
        <ele>1333</ele>
        <time>2018-08-11T22:08:46+02:00</time>
      </trkpt>
      <trkpt lat="48.03718" lon="7.01505">
        <ele>1325</ele>
        <time>2018-08-11T22:08:51+02:00</time>
      </trkpt>
      <trkpt lat="48.03699" lon="7.01438">
        <ele>1316</ele>
        <time>2018-08-11T22:08:56+02:00</time>
      </trkpt>
      <trkpt lat="48.03683" lon="7.01376">
        <ele>1314</ele>
        <time>2018-08-11T22:09:01+02:00</time>
      </trkpt>
      <trkpt lat="48.0367" lon="7.01324">
        <ele>1314</ele>
        <time>2018-08-11T22:09:06+02:00</time>
      </trkpt>
      <trkpt lat="48.03603" lon="7.01244">
        <ele>1297</ele>
        <time>2018-08-11T22:09:11+02:00</time>
      </trkpt>
      <trkpt lat="48.03538" lon="7.01172">
        <ele>1279</ele>
        <time>2018-08-11T22:09:16+02:00</time>
      </trkpt>
      <trkpt lat="48.03502" lon="7.01106">
        <ele>1272</ele>
        <time>2018-08-11T22:09:21+02:00</time>
      </trkpt>
      <trkpt lat="48.03485" lon="7.01056">
        <ele>1272</ele>
        <time>2018-08-11T22:09:26+02:00</time>
      </trkpt>
      <trkpt lat="48.03606" lon="7.00847">
        <ele>1250</ele>
        <time>2018-08-11T22:09:31+02:00</time>
      </trkpt>
      <trkpt lat="48.03583" lon="7.00799">
        <ele>1246</ele>
        <time>2018-08-11T22:09:36+02:00</time>
      </trkpt>
    </trkseg>
  </trk>
</gpx>